Time;durP1;ratioP1;P1;durP2;ratioP2;P2;SDS_P1;SDS_P2;PMS_P1;PMS_P2;Temp;Humidity;BMP_temperature;BMP_pressure;BME280_temperature;BME280_humidity;BME280_pressure;Samples;Min_cycle;Max_cycle;Signal;HPM_P1;HPM_P2
2024/03/01 00:01:51;;;;;;;37.60;26.60;;;;;;;6.25;68.28;95222.38;4987761;28;20444;-69
2024/03/01 00:04:17;;;;;;;41.17;28.43;;;;;;;6.24;68.33;95225.91;4988093;28;20173;-69
2024/03/01 00:06:42;;;;;;;39.20;27.03;;;;;;;6.31;68.41;95216.91;4986673;28;20177;-69
2024/03/01 00:09:08;;;;;;;41.93;28.53;;;;;;;6.22;68.86;95210.34;4988164;28;20828;-70
2024/03/01 00:11:34;;;;;;;39.87;25.73;;;;;;;6.13;68.96;95229.84;4988422;28;20219;-69
2024/03/01 00:14:00;;;;;;;43.60;26.77;;;;;;;6.33;68.07;95233.28;4989227;28;20468;-70
2024/03/01 00:16:25;;;;;;;40.27;24.43;;;;;;;6.29;67.85;95227.38;4988536;28;20260;-70
2024/03/01 00:18:51;;;;;;;42.40;26.10;;;;;;;6.33;67.95;95218.53;4989235;28;20252;-69
2024/03/01 00:21:16;;;;;;;42.57;25.37;;;;;;;6.40;67.72;95226.03;4989732;28;20838;-71
2024/03/01 00:23:42;;;;;;;36.17;26.10;;;;;;;6.40;67.54;95218.22;4989605;28;20223;-69
2024/03/01 00:26:08;;;;;;;40.97;27.20;;;;;;;6.30;67.60;95223.00;4989502;28;20653;-69
2024/03/01 00:28:34;;;;;;;38.90;24.90;;;;;;;6.46;67.54;95225.75;4971202;28;20474;-69
2024/03/01 00:31:03;;;;;;;38.63;24.67;;;;;;;6.47;67.26;95227.44;4988958;28;20216;-69
2024/03/01 00:33:29;;;;;;;39.50;23.77;;;;;;;6.35;67.38;95219.28;4988622;28;20416;-68
2024/03/01 00:35:55;;;;;;;36.20;24.30;;;;;;;6.34;67.34;95221.97;4988715;28;20508;-69
2024/03/01 00:38:21;;;;;;;36.23;22.87;;;;;;;6.30;67.53;95225.63;4989229;28;20177;-69
2024/03/01 00:40:46;;;;;;;34.57;22.67;;;;;;;6.23;67.88;95225.03;4988324;28;20605;-68
2024/03/01 00:43:11;;;;;;;38.40;24.90;;;;;;;6.50;66.70;95222.09;4989135;28;20470;-69
2024/03/01 00:45:37;;;;;;;39.73;25.07;;;;;;;6.37;67.03;95227.03;4989147;28;20196;-70
2024/03/01 00:48:13;;;;;;;40.03;25.00;;;;;;;6.24;66.85;95220.69;4987847;28;20204;-69
2024/03/01 00:50:40;;;;;;;40.30;22.87;;;;;;;6.18;66.68;95224.41;4986519;28;20227;-68
2024/03/01 00:53:07;;;;;;;37.93;22.37;;;;;;;6.08;67.07;95221.38;4986135;28;20459;-70
2024/03/01 00:55:33;;;;;;;33.70;20.30;;;;;;;6.19;66.94;95223.53;4985868;28;20416;-69
2024/03/01 00:57:59;;;;;;;39.00;23.00;;;;;;;6.11;67.30;95225.59;4986769;28;20533;-69
2024/03/01 01:00:25;;;;;;;38.23;23.30;;;;;;;6.08;67.26;95220.53;4968252;28;20980;-69
2024/03/01 01:02:51;;;;;;;39.03;23.07;;;;;;;5.99;67.57;95218.34;4985915;28;20567;-69
2024/03/01 01:05:17;;;;;;;41.53;21.87;;;;;;;5.94;67.83;95215.97;4986068;28;20423;-69
2024/03/01 01:07:43;;;;;;;40.17;24.37;;;;;;;5.89;67.79;95220.50;4986050;28;20216;-69
2024/03/01 01:10:09;;;;;;;35.07;20.83;;;;;;;6.05;67.36;95229.34;4968330;28;20413;-70
2024/03/01 01:12:34;;;;;;;34.07;21.97;;;;;;;6.12;66.96;95227.31;4985937;28;20200;-70
2024/03/01 01:15:00;;;;;;;34.17;20.50;;;;;;;6.14;66.83;95221.13;4986616;28;20180;-69
2024/03/01 01:17:28;;;;;;;39.67;21.07;;;;;;;6.08;66.86;95224.00;4986140;28;20176;-70
2024/03/01 01:19:58;;;;;;;41.63;22.30;;;;;;;5.98;67.29;95217.50;4986086;28;20278;-69
2024/03/01 01:22:24;;;;;;;32.43;22.33;;;;;;;5.80;67.69;95218.28;4986132;28;20432;-69
2024/03/01 01:24:50;;;;;;;30.63;20.10;;;;;;;5.77;67.85;95213.22;4987150;28;20424;-69
2024/03/01 01:27:15;;;;;;;32.80;21.40;;;;;;;5.85;67.65;95214.56;4986708;28;20924;-69
2024/03/01 01:29:41;;;;;;;34.73;20.60;;;;;;;5.86;67.29;95205.84;4986788;28;20216;-70
2024/03/01 01:32:07;;;;;;;32.23;20.87;;;;;;;5.68;67.68;95202.28;4987211;28;20630;-70
2024/03/01 01:34:33;;;;;;;36.30;22.57;;;;;;;5.77;67.84;95208.03;4987830;28;20575;-69
2024/03/01 01:36:58;;;;;;;33.77;21.57;;;;;;;5.69;67.95;95213.53;4989270;28;20583;-70
2024/03/01 01:39:24;;;;;;;32.77;22.10;;;;;;;5.68;68.24;95207.50;4987280;28;20192;-69
2024/03/01 01:41:49;;;;;;;39.60;25.57;;;;;;;5.96;67.14;95210.69;4986322;28;20670;-70
2024/03/01 01:44:15;;;;;;;34.80;21.53;;;;;;;5.79;67.27;95198.38;4986877;28;20647;-68
2024/03/01 01:46:42;;;;;;;38.93;22.53;;;;;;;5.54;68.66;95206.44;4986411;28;20184;-68
2024/03/01 01:49:08;;;;;;;32.47;20.80;;;;;;;5.66;68.34;95198.06;4986588;28;20427;-70
2024/03/01 01:51:34;;;;;;;34.70;23.67;;;;;;;5.79;68.11;95198.38;4986036;28;20499;-69
2024/03/01 01:54:00;;;;;;;34.57;21.00;;;;;;;5.80;67.72;95192.25;4986013;28;21239;-70
2024/03/01 01:56:26;;;;;;;36.87;21.00;;;;;;;5.71;68.05;95185.69;4987218;28;20462;-71
2024/03/01 01:58:52;;;;;;;34.13;21.60;;;;;;;5.78;67.56;95186.28;4988174;28;20504;-70
2024/03/01 02:01:18;;;;;;;34.60;21.00;;;;;;;5.95;67.36;95186.38;4987461;28;20185;-69
2024/03/01 02:03:45;;;;;;;32.10;20.73;;;;;;;5.82;67.82;95188.69;4990184;28;20464;-69
2024/03/01 02:06:11;;;;;;;33.37;20.27;;;;;;;5.62;67.94;95191.31;4990706;28;20462;-68
2024/03/01 02:08:38;;;;;;;36.27;24.27;;;;;;;5.51;68.04;95183.97;4990691;28;20642;-69
2024/03/01 02:11:04;;;;;;;36.77;20.63;;;;;;;5.47;68.45;95182.41;4990302;28;20416;-69
2024/03/01 02:13:31;;;;;;;32.80;20.63;;;;;;;5.55;68.11;95180.34;4990406;28;20427;-69
2024/03/01 02:15:57;;;;;;;32.70;21.77;;;;;;;5.52;68.12;95185.66;4990399;28;20408;-69
2024/03/01 02:18:23;;;;;;;31.07;20.83;;;;;;;5.53;68.33;95192.56;4990090;28;20410;-69
2024/03/01 02:21:03;;;;;;;35.20;21.07;;;;;;;5.60;67.44;95183.59;4990024;28;20303;-69
2024/03/01 02:23:28;;;;;;;34.30;21.13;;;;;;;5.57;67.50;95186.31;4990119;28;20227;-70
2024/03/01 02:25:54;;;;;;;33.53;19.90;;;;;;;5.40;67.69;95188.81;4989494;28;20447;-69
2024/03/01 02:28:20;;;;;;;37.60;22.07;;;;;;;5.24;68.64;95186.88;4989764;28;20312;-70
2024/03/01 02:30:46;;;;;;;33.33;20.33;;;;;;;5.28;68.46;95178.00;4990059;28;20239;-70
2024/03/01 02:33:11;;;;;;;32.53;19.87;;;;;;;5.28;67.68;95190.16;4972497;28;20943;-69
2024/03/01 02:35:37;;;;;;;30.63;20.60;;;;;;;5.36;67.98;95187.22;4990094;28;20169;-69
2024/03/01 02:38:03;;;;;;;35.77;20.90;;;;;;;5.44;67.59;95182.56;4989884;28;20176;-70
2024/03/01 02:40:28;;;;;;;27.60;17.70;;;;;;;5.23;68.77;95192.13;4990493;28;20189;-69
2024/03/01 02:42:54;;;;;;;28.73;18.00;;;;;;;5.32;68.11;95185.69;4992283;28;20296;-67
2024/03/01 02:45:19;;;;;;;25.77;16.73;;;;;;;5.18;68.29;95175.88;4993028;28;20188;-69
2024/03/01 02:47:45;;;;;;;23.30;16.87;;;;;;;5.04;68.52;95179.06;4975763;28;20200;-68
2024/03/01 02:50:10;;;;;;;24.37;15.30;;;;;;;4.90;68.29;95171.81;4991337;28;20177;-69
2024/03/01 02:52:36;;;;;;;20.90;15.10;;;;;;;4.93;68.71;95182.09;4993910;28;20208;-69
2024/03/01 02:55:02;;;;;;;25.27;15.10;;;;;;;4.87;68.62;95180.59;4989661;28;20176;-66
2024/03/01 02:57:27;;;;;;;26.57;16.97;;;;;;;4.92;68.35;95175.22;4989589;28;20204;-68
2024/03/01 02:59:52;;;;;;;34.73;18.60;;;;;;;4.75;68.44;95180.22;4989144;28;20424;-67
2024/03/01 03:02:18;;;;;;;31.47;17.30;;;;;;;4.80;68.51;95180.91;4988865;28;20224;-67
2024/03/01 03:04:43;;;;;;;28.17;18.20;;;;;;;4.66;69.31;95184.06;4989311;28;20965;-70
2024/03/01 03:07:10;;;;;;;28.10;17.63;;;;;;;4.66;69.15;95184.91;4970965;28;20744;-69
2024/03/01 03:09:36;;;;;;;28.27;18.80;;;;;;;4.73;68.95;95192.47;4988453;28;20184;-70
2024/03/01 03:12:01;;;;;;;24.17;17.67;;;;;;;4.74;69.52;95187.19;4988651;28;20452;-68
2024/03/01 03:14:27;;;;;;;23.20;16.23;;;;;;;4.67;69.72;95183.16;4988902;28;20527;-69
2024/03/01 03:16:52;;;;;;;24.97;16.77;;;;;;;4.61;70.26;95186.84;4988484;28;20239;-67
2024/03/01 03:19:18;;;;;;;29.47;19.33;;;;;;;4.76;69.81;95193.19;4988459;28;20181;-68
2024/03/01 03:21:44;;;;;;;25.00;17.27;;;;;;;4.77;69.78;95200.09;4988254;28;20188;-68
2024/03/01 03:24:10;;;;;;;35.63;19.30;;;;;;;4.77;70.09;95213.06;4988434;28;20648;-68
2024/03/01 03:26:35;;;;;;;25.77;17.40;;;;;;;4.66;70.68;95225.66;4989233;28;20507;-68
2024/03/01 03:29:01;;;;;;;26.53;18.10;;;;;;;4.36;70.99;95228.53;4990022;28;20518;-69
2024/03/01 03:31:26;;;;;;;31.40;17.40;;;;;;;4.42;70.98;95228.28;4991060;28;20189;-67
2024/03/01 03:33:52;;;;;;;32.07;18.80;;;;;;;4.53;71.59;95234.81;4990690;28;20237;-68
2024/03/01 03:36:17;;;;;;;32.27;17.83;;;;;;;4.54;71.03;95242.56;4972596;28;20539;-68
2024/03/01 03:38:43;;;;;;;27.33;17.50;;;;;;;4.58;71.16;95248.47;4990372;28;20180;-68
2024/03/01 03:41:08;;;;;;;34.50;18.20;;;;;;;4.72;70.74;95251.38;4989691;28;20193;-68
2024/03/01 03:43:34;;;;;;;28.07;17.33;;;;;;;4.84;70.55;95250.03;4972571;28;20300;-68
2024/03/01 03:46:00;;;;;;;27.03;19.30;;;;;;;4.99;69.73;95254.63;4971855;28;20659;-69
2024/03/01 03:48:25;;;;;;;31.73;18.27;;;;;;;4.95;70.20;95262.63;4989284;28;20212;-68
2024/03/01 03:50:51;;;;;;;31.43;19.97;;;;;;;4.80;70.29;95264.94;4989426;28;20420;-69
2024/03/01 03:53:16;;;;;;;34.53;21.00;;;;;;;4.72;70.84;95260.94;4989185;28;20574;-69
2024/03/01 03:55:42;;;;;;;29.80;18.23;;;;;;;4.71;70.94;95270.47;4972499;28;20259;-67
2024/03/01 03:58:07;;;;;;;31.63;19.33;;;;;;;4.82;70.60;95268.31;4989815;28;20173;-68
2024/03/01 04:00:32;;;;;;;30.30;19.73;;;;;;;4.84;70.71;95260.44;4988620;28;20870;-67
2024/03/01 04:02:58;;;;;;;33.53;20.57;;;;;;;4.87;70.53;95261.19;4970564;28;20216;-68
2024/03/01 04:05:23;;;;;;;30.43;19.10;;;;;;;4.91;70.49;95264.47;4988385;28;20240;-67
2024/03/01 04:07:49;;;;;;;28.00;19.13;;;;;;;4.81;70.66;95260.56;4988437;28;20274;-68
2024/03/01 04:10:14;;;;;;;29.17;19.00;;;;;;;4.81;70.70;95248.41;4970360;28;20191;-69
2024/03/01 04:12:40;;;;;;;28.70;19.53;;;;;;;5.06;70.09;95255.25;4987437;28;20189;-68
2024/03/01 04:15:06;;;;;;;31.33;20.40;;;;;;;5.08;69.76;95258.63;4988719;28;20260;-69
2024/03/01 04:17:33;;;;;;;31.37;19.50;;;;;;;5.04;70.33;95254.44;4987672;28;20521;-67
2024/03/01 04:19:59;;;;;;;36.40;20.80;;;;;;;5.20;69.68;95250.31;4987567;28;20558;-68
2024/03/01 04:22:24;;;;;;;33.47;21.20;;;;;;;5.17;69.85;95252.19;4987207;28;20522;-68
2024/03/01 04:24:50;;;;;;;34.97;20.43;;;;;;;5.09;70.78;95262.91;4987083;28;20177;-68
2024/03/01 04:27:15;;;;;;;28.30;19.17;;;;;;;5.12;70.15;95264.53;4987100;28;20204;-69
2024/03/01 04:29:41;;;;;;;33.70;21.60;;;;;;;5.20;69.61;95265.94;4988006;28;20204;-69
2024/03/01 04:32:09;;;;;;;32.73;21.53;;;;;;;5.12;70.21;95261.94;4986816;28;20226;-69
2024/03/01 04:34:34;;;;;;;36.97;20.70;;;;;;;5.09;70.35;95266.34;4988015;28;20185;-67
2024/03/01 04:37:00;;;;;;;37.17;23.47;;;;;;;5.12;70.23;95265.38;4987465;28;21187;-68
2024/03/01 04:39:25;;;;;;;34.23;22.40;;;;;;;5.20;69.86;95272.88;4988067;28;20235;-69
2024/03/01 04:41:52;;;;;;;31.40;19.30;;;;;;;5.21;70.05;95271.97;4986630;28;20193;-67
2024/03/01 04:44:17;;;;;;;39.10;22.37;;;;;;;5.19;70.31;95261.63;4987898;28;20561;-68
2024/03/01 04:46:43;;;;;;;34.37;20.60;;;;;;;5.19;70.53;95269.41;4987258;28;20463;-68
2024/03/01 04:49:08;;;;;;;40.73;23.00;;;;;;;5.20;70.74;95271.13;4987161;28;20180;-69
2024/03/01 04:51:34;;;;;;;40.10;22.33;;;;;;;5.38;69.88;95269.50;4969353;28;20195;-69
2024/03/01 04:53:59;;;;;;;34.70;21.90;;;;;;;5.33;69.96;95266.25;4986716;28;20185;-68
2024/03/01 04:56:24;;;;;;;39.63;23.37;;;;;;;5.36;70.15;95275.69;4987308;28;20173;-68
2024/03/01 04:58:50;;;;;;;36.33;22.83;;;;;;;5.35;70.18;95274.00;4987497;28;20191;-68
2024/03/01 05:01:16;;;;;;;32.00;20.90;;;;;;;5.47;69.78;95278.69;4969688;28;20264;-69
2024/03/01 05:03:45;;;;;;;34.07;21.90;;;;;;;5.40;70.13;95287.66;4987330;28;20188;-68
2024/03/01 05:06:11;;;;;;;30.83;21.37;;;;;;;5.50;69.89;95282.03;4987302;28;20474;-67
2024/03/01 05:08:36;;;;;;;47.37;23.87;;;;;;;5.49;70.12;95280.31;4987505;28;20460;-67
2024/03/01 05:11:02;;;;;;;42.20;23.77;;;;;;;5.56;69.47;95280.91;4987342;28;20544;-68
2024/03/01 05:13:28;;;;;;;44.43;23.40;;;;;;;5.48;70.34;95285.56;4986913;28;20197;-68
2024/03/01 05:15:54;;;;;;;35.00;21.43;;;;;;;5.45;70.08;95281.34;4987189;28;20424;-69
2024/03/01 05:18:20;;;;;;;33.63;20.67;;;;;;;5.44;69.95;95284.03;4987435;28;20222;-69
2024/03/01 05:20:45;;;;;;;39.43;22.10;;;;;;;5.51;70.02;95283.69;4987879;28;20200;-68
2024/03/01 05:23:11;;;;;;;36.83;21.57;;;;;;;5.24;71.00;95284.84;4987135;28;20277;-69
2024/03/01 05:25:37;;;;;;;32.10;22.50;;;;;;;5.18;71.49;95285.94;4987493;28;20185;-69
2024/03/01 05:28:03;;;;;;;37.57;21.53;;;;;;;5.35;71.13;95284.41;4988171;28;20205;-68
2024/03/01 05:30:35;;;;;;;39.33;21.33;;;;;;;5.20;71.49;95289.34;4994935;28;20413;-69
2024/03/01 05:33:02;;;;;;;33.40;20.83;;;;;;;5.34;71.22;95290.50;5005389;28;20825;-69
2024/03/01 05:35:28;;;;;;;30.80;20.73;;;;;;;5.44;71.29;95295.28;5001115;28;20434;-69
2024/03/01 05:37:56;;;;;;;35.10;21.67;;;;;;;4.96;72.37;95301.56;4992881;28;20777;-68
2024/03/01 05:40:22;;;;;;;30.17;20.80;;;;;;;4.96;73.25;95306.78;4988424;28;20415;-68
2024/03/01 05:42:48;;;;;;;38.57;22.80;;;;;;;5.03;73.21;95308.22;4987070;28;20435;-68
2024/03/01 05:45:13;;;;;;;36.20;23.70;;;;;;;4.69;74.49;95318.22;4987118;28;20173;-68
2024/03/01 05:47:40;;;;;;;35.57;21.00;;;;;;;4.72;73.99;95315.50;4985804;28;20201;-69
2024/03/01 05:50:07;;;;;;;35.63;21.13;;;;;;;4.65;74.87;95314.88;4987057;28;20619;-68
2024/03/01 05:52:34;;;;;;;42.87;21.63;;;;;;;4.91;74.46;95316.47;4964579;28;21143;-68
2024/03/01 05:55:00;;;;;;;41.30;22.20;;;;;;;4.80;74.75;95311.72;4986624;28;20423;-68
2024/03/01 05:57:26;;;;;;;36.27;22.33;;;;;;;4.87;74.44;95307.97;4977876;28;20936;-69
2024/03/01 05:59:51;;;;;;;36.73;22.33;;;;;;;5.24;73.39;95301.31;4986579;28;20208;-68
2024/03/01 06:02:17;;;;;;;34.73;23.03;;;;;;;5.32;73.31;95300.16;4986264;28;20454;-69
2024/03/01 06:04:43;;;;;;;38.40;21.70;;;;;;;5.39;72.99;95301.59;4968711;28;20185;-69
2024/03/01 06:07:09;;;;;;;35.37;21.53;;;;;;;5.44;73.17;95297.03;4989232;28;20594;-67
2024/03/01 06:09:34;;;;;;;34.33;21.53;;;;;;;5.39;73.54;95293.78;4988922;28;20173;-68
2024/03/01 06:11:59;;;;;;;38.53;22.70;;;;;;;5.29;74.40;95291.56;4990569;28;20224;-68
2024/03/01 06:14:25;;;;;;;42.00;24.43;;;;;;;5.38;74.45;95286.88;4991690;28;20199;-67
2024/03/01 06:16:51;;;;;;;44.00;23.83;;;;;;;5.41;74.13;95282.41;4994652;28;20181;-68
2024/03/01 06:19:17;;;;;;;49.57;23.80;;;;;;;5.27;74.60;95279.53;4986523;28;20276;-67
2024/03/01 06:21:43;;;;;;;38.93;24.40;;;;;;;5.41;74.24;95277.19;4999446;28;20518;-69
2024/03/01 06:24:08;;;;;;;35.90;23.87;;;;;;;5.63;74.00;95271.09;4988969;28;20620;-68
2024/03/01 06:26:34;;;;;;;41.00;23.00;;;;;;;5.80;73.29;95275.56;4995800;28;20415;-67
2024/03/01 06:29:01;;;;;;;36.10;22.90;;;;;;;5.89;72.34;95276.00;4997833;28;20272;-68
2024/03/01 06:31:26;;;;;;;41.90;24.00;;;;;;;5.70;72.74;95282.94;4982340;28;20428;-68
2024/03/01 06:33:52;;;;;;;36.13;22.17;;;;;;;5.29;74.20;95288.09;4984425;28;20435;-68
2024/03/01 06:36:17;;;;;;;37.53;22.23;;;;;;;5.18;75.25;95292.91;4977048;28;20272;-69
2024/03/01 06:38:42;;;;;;;33.37;21.87;;;;;;;5.39;74.46;95299.84;4986496;28;20173;-68
2024/03/01 06:41:09;;;;;;;39.00;24.30;;;;;;;5.69;73.79;95292.50;4982027;28;20670;-68
2024/03/01 06:43:34;;;;;;;35.90;24.40;;;;;;;5.54;74.11;95298.34;4981741;28;20191;-69
2024/03/01 06:46:03;;;;;;;40.97;23.00;;;;;;;5.61;73.75;95304.13;4984700;28;20428;-68
2024/03/01 06:48:29;;;;;;;35.63;23.30;;;;;;;5.57;74.30;95305.16;4990431;28;20196;-69
2024/03/01 06:50:54;;;;;;;37.30;24.07;;;;;;;5.37;74.21;95313.81;4989363;28;20423;-69
2024/03/01 06:53:20;;;;;;;38.73;23.77;;;;;;;5.49;74.60;95315.91;4988960;28;20229;-69
2024/03/01 06:55:45;;;;;;;44.90;24.43;;;;;;;5.55;74.40;95314.78;4990830;28;20421;-69
2024/03/01 06:58:11;;;;;;;38.50;23.07;;;;;;;5.45;74.91;95314.31;4983255;28;20188;-69
2024/03/01 07:00:36;;;;;;;42.90;24.87;;;;;;;5.55;75.00;95312.19;4988854;28;20188;-68
2024/03/01 07:03:02;;;;;;;36.23;20.90;;;;;;;5.08;76.57;95318.44;4989162;28;20603;-67
2024/03/01 07:05:29;;;;;;;39.40;25.03;;;;;;;5.13;76.73;95311.28;4989556;28;20894;-69
2024/03/01 07:07:55;;;;;;;40.23;23.73;;;;;;;5.38;75.96;95312.88;4988621;28;20463;-68
2024/03/01 07:10:21;;;;;;;34.67;22.90;;;;;;;5.30;75.71;95315.81;4988544;28;20483;-68
2024/03/01 07:12:47;;;;;;;36.00;23.67;;;;;;;5.29;76.49;95309.78;4988108;28;20543;-67
2024/03/01 07:15:13;;;;;;;38.13;24.30;;;;;;;5.54;75.96;95315.72;4988882;28;20173;-67
2024/03/01 07:17:40;;;;;;;39.03;24.30;;;;;;;5.67;75.28;95312.53;4988897;28;20408;-67
2024/03/01 07:20:06;;;;;;;49.10;23.37;;;;;;;5.68;75.12;95322.03;4987804;28;20420;-68
2024/03/01 07:22:31;;;;;;;33.77;23.50;;;;;;;5.50;76.57;95318.44;4987957;28;20427;-67
2024/03/01 07:24:57;;;;;;;46.90;25.53;;;;;;;5.38;77.21;95331.09;4969565;28;20455;-67
2024/03/01 07:27:22;;;;;;;37.10;21.93;;;;;;;5.38;77.48;95323.28;4987277;28;20287;-67
2024/03/01 07:29:48;;;;;;;36.40;23.47;;;;;;;5.54;76.93;95318.31;4986306;28;20279;-68
2024/03/01 07:32:13;;;;;;;38.87;23.70;;;;;;;5.63;76.67;95320.53;5002561;28;20578;-67
2024/03/01 07:34:39;;;;;;;40.93;24.20;;;;;;;5.73;76.04;95320.06;4993603;28;20208;-66
2024/03/01 07:37:05;;;;;;;37.30;23.87;;;;;;;5.75;76.15;95322.63;4978964;28;20181;-67
2024/03/01 07:39:31;;;;;;;40.70;24.90;;;;;;;5.96;75.60;95320.06;4982175;28;20205;-66
2024/03/01 07:41:57;;;;;;;38.07;23.40;;;;;;;5.92;75.43;95324.50;4980324;28;20462;-68
2024/03/01 07:44:22;;;;;;;35.27;24.50;;;;;;;5.96;75.77;95331.31;4978929;28;20187;-66
2024/03/01 07:46:49;;;;;;;36.93;21.70;;;;;;;6.27;74.46;95322.16;4980214;28;20180;-68
2024/03/01 07:49:15;;;;;;;39.23;22.67;;;;;;;6.08;75.76;95327.34;4981201;28;20199;-67
2024/03/01 07:51:40;;;;;;;60.77;25.27;;;;;;;5.97;75.92;95325.19;4980168;28;20463;-67
2024/03/01 07:54:06;;;;;;;32.43;20.17;;;;;;;6.00;75.94;95330.28;4983343;28;20295;-67
2024/03/01 07:56:31;;;;;;;33.17;21.10;;;;;;;6.21;75.55;95328.47;4975889;28;20201;-66
2024/03/01 07:59:02;;;;;;;34.83;22.50;;;;;;;6.20;75.86;95326.78;4983966;28;20184;-68
2024/03/01 08:01:28;;;;;;;38.10;22.80;;;;;;;6.40;75.14;95325.06;4998563;28;20804;-69
2024/03/01 08:03:54;;;;;;;34.73;23.40;;;;;;;6.61;74.29;95323.25;5003477;28;20426;-70
2024/03/01 08:06:20;;;;;;;35.17;23.70;;;;;;;6.72;73.81;95326.22;5002572;28;20427;-68
2024/03/01 08:08:45;;;;;;;34.43;21.63;;;;;;;6.78;73.86;95325.94;5001030;28;20679;-68
2024/03/01 08:11:23;;;;;;;33.23;22.80;;;;;;;6.75;74.02;95323.44;5002209;28;20442;-68
2024/03/01 08:13:49;;;;;;;32.47;21.73;;;;;;;6.64;74.42;95339.59;4991142;28;20249;-69
2024/03/01 08:16:21;;;;;;;39.87;23.70;;;;;;;6.75;74.21;95331.28;4991175;28;20431;-68
2024/03/01 08:18:47;;;;;;;41.00;24.27;;;;;;;6.63;74.70;95335.28;4986680;28;20658;-67
2024/03/01 08:21:14;;;;;;;35.90;22.57;;;;;;;6.79;74.51;95336.28;4984337;28;20435;-69
2024/03/01 08:23:41;;;;;;;43.17;24.73;;;;;;;6.77;74.87;95334.66;4984924;28;20196;-68
2024/03/01 08:26:14;;;;;;;34.60;22.87;;;;;;;6.78;74.70;95339.81;4978295;28;20432;-71
2024/03/01 08:28:44;;;;;;;37.70;23.87;;;;;;;6.89;74.96;95348.91;4981226;28;20696;-67
2024/03/01 08:31:23;;;;;;;43.07;22.43;;;;;;;6.88;75.31;95347.22;4982985;28;20432;-69
2024/03/01 08:33:57;;;;;;;31.73;21.10;;;;;;;6.89;75.18;95346.28;4997752;28;21229;-67
2024/03/01 08:36:23;;;;;;;65.07;24.83;;;;;;;6.96;75.23;95348.53;4999519;28;20533;-67
2024/03/01 08:38:57;;;;;;;42.50;23.57;;;;;;;7.02;75.09;95352.63;4999511;28;20427;-67
2024/03/01 08:41:23;;;;;;;40.40;24.50;;;;;;;7.05;75.48;95344.66;4996586;28;20185;-67
2024/03/01 08:43:49;;;;;;;38.40;23.47;;;;;;;7.06;74.92;95342.88;4998101;28;20930;-68
2024/03/01 08:46:41;;;;;;;35.70;25.50;;;;;;;7.03;75.56;95349.09;4973900;28;20467;-68
2024/03/01 08:49:45;;;;;;;36.90;21.60;;;;;;;7.17;74.75;95348.44;4971957;28;20583;-69
2024/03/01 08:52:39;;;;;;;28.80;20.80;;;;;;;7.21;75.22;95355.22;4941895;28;20482;-68
2024/03/01 08:55:16;;;;;;;35.60;23.10;;;;;;;7.18;75.09;95351.00;4983184;28;20431;-66
2024/03/01 08:57:42;;;;;;;43.70;24.57;;;;;;;7.25;75.67;95359.34;4983522;28;21172;-68
2024/03/01 09:00:38;;;;;;;40.37;23.30;;;;;;;7.25;75.10;95353.31;4985712;28;20539;-68
2024/03/01 09:03:10;;;;;;;37.17;26.10;;;;;;;7.30;75.52;95357.41;4982828;28;20219;-67
2024/03/01 09:05:40;;;;;;;38.90;24.13;;;;;;;7.38;74.84;95357.88;4979104;28;20523;-70
2024/03/01 09:08:08;;;;;;;35.27;23.90;;;;;;;7.42;75.67;95356.81;4981100;28;20644;-69
2024/03/01 09:10:34;;;;;;;37.73;23.67;;;;;;;7.56;75.17;95355.28;4984517;28;21144;-68
2024/03/01 09:13:01;;;;;;;44.60;23.37;;;;;;;7.40;75.71;95365.63;4982892;28;20471;-69
2024/03/01 09:15:36;;;;;;;41.70;25.30;;;;;;;7.53;75.77;95365.88;4982794;28;20242;-68
2024/03/01 09:18:01;;;;;;;47.40;27.03;;;;;;;7.50;75.44;95364.25;4982006;28;21871;-69
2024/03/01 09:20:37;;;;;;;41.33;23.97;;;;;;;7.40;75.96;95366.47;4977437;28;20433;-70
2024/03/01 09:23:13;;;;;;;45.20;24.87;;;;;;;7.54;75.47;95364.97;4983682;28;20295;-68
2024/03/01 09:25:47;;;;;;;39.53;25.37;;;;;;;7.46;75.63;95360.09;4979701;28;20436;-69
2024/03/01 09:28:14;;;;;;;37.40;22.53;;;;;;;7.39;76.36;95363.91;4979021;28;20483;-70
2024/03/01 09:30:41;;;;;;;44.37;26.00;;;;;;;7.50;75.65;95363.41;4983454;28;20431;-71
2024/03/01 09:33:10;;;;;;;37.93;24.57;;;;;;;7.68;75.44;95361.66;4981549;28;20471;-68
2024/03/01 09:35:35;;;;;;;50.03;26.10;;;;;;;7.63;75.23;95364.53;4980936;28;20439;-68
2024/03/01 09:38:01;;;;;;;37.73;24.83;;;;;;;7.66;75.21;95361.75;4981755;28;20491;-67
2024/03/01 09:40:54;;;;;;;37.57;26.63;;;;;;;7.71;75.05;95367.59;4975110;28;20551;-69
2024/03/01 09:43:47;;;;;;;39.20;23.87;;;;;;;7.61;75.44;95364.59;4981321;28;20487;-69
2024/03/01 09:47:01;;;;;;;38.60;23.70;;;;;;;7.80;74.95;95361.09;4984956;28;20436;-66
2024/03/01 09:49:51;;;;;;;41.77;25.70;;;;;;;7.88;74.81;95364.13;4976498;28;20443;-69
2024/03/01 09:52:39;;;;;;;39.13;22.20;;;;;;;7.89;74.40;95362.38;4980346;28;21036;-67
2024/03/01 09:55:32;;;;;;;35.53;21.43;;;;;;;7.90;75.39;95366.69;4984149;28;21201;-68
2024/03/01 09:58:27;;;;;;;32.97;20.90;;;;;;;7.90;74.93;95370.13;4978804;28;20479;-67
2024/03/01 10:00:59;;;;;;;31.17;21.43;;;;;;;7.97;75.32;95370.69;4981634;28;20502;-67
2024/03/01 10:03:45;;;;;;;38.10;22.40;;;;;;;8.00;74.88;95370.53;4978878;28;21003;-68
2024/03/01 10:06:40;;;;;;;45.37;22.17;;;;;;;8.04;75.74;95359.00;4981277;28;20467;-68
2024/03/01 10:09:18;;;;;;;39.10;22.77;;;;;;;8.03;75.94;95372.97;4981989;28;20479;-69
2024/03/01 10:12:27;;;;;;;41.17;23.00;;;;;;;8.09;75.31;95367.44;4980587;28;20530;-68
2024/03/01 10:15:03;;;;;;;41.53;22.80;;;;;;;8.14;75.56;95368.06;4987791;28;20577;-68
2024/03/01 10:17:59;;;;;;;33.67;20.57;;;;;;;8.16;75.24;95368.00;4974061;28;21166;-68
2024/03/01 10:20:55;;;;;;;38.77;23.03;;;;;;;8.18;75.36;95372.22;4978070;28;20447;-70
2024/03/01 10:23:50;;;;;;;35.13;22.80;;;;;;;8.22;75.58;95368.53;4986374;28;20443;-69
2024/03/01 10:26:26;;;;;;;33.30;22.00;;;;;;;8.16;75.49;95371.44;4983450;28;20432;-69
2024/03/01 10:29:04;;;;;;;40.90;22.93;;;;;;;8.34;75.37;95374.03;4973131;28;20451;-68
2024/03/01 10:31:47;;;;;;;37.17;24.03;;;;;;;8.19;76.86;95365.22;4985179;28;20473;-67
2024/03/01 10:34:36;;;;;;;35.30;23.40;;;;;;;8.36;75.80;95366.94;4984163;28;20527;-67
2024/03/01 10:37:24;;;;;;;30.60;21.30;;;;;;;8.52;75.99;95367.88;4985659;28;20446;-69
2024/03/01 10:40:00;;;;;;;36.10;22.20;;;;;;;8.41;75.63;95370.19;4989734;28;20542;-69
2024/03/01 10:42:29;;;;;;;32.50;22.10;;;;;;;8.40;75.74;95366.75;4988461;28;20563;-69
2024/03/01 10:45:23;;;;;;;39.73;21.50;;;;;;;8.53;75.49;95366.09;4985351;28;20483;-70
2024/03/01 10:47:50;;;;;;;33.73;21.23;;;;;;;8.39;76.64;95362.41;4984656;28;20456;-69
2024/03/01 10:50:28;;;;;;;31.37;22.90;;;;;;;8.43;76.57;95356.16;4985320;28;20566;-69
2024/03/01 10:52:57;;;;;;;28.23;19.60;;;;;;;8.40;76.96;95355.44;4982456;28;20463;-68
2024/03/01 10:55:33;;;;;;;33.40;21.67;;;;;;;8.53;76.46;95359.13;4983347;28;20563;-69
2024/03/01 10:58:04;;;;;;;30.30;20.60;;;;;;;8.39;76.48;95361.59;4984731;28;20888;-69
2024/03/01 11:00:35;;;;;;;45.20;24.33;;;;;;;8.45;76.45;95356.03;4980985;28;20494;-69
2024/03/01 11:03:22;;;;;;;29.33;20.60;;;;;;;8.63;76.36;95354.25;4984294;28;20448;-69
2024/03/01 11:06:10;;;;;;;45.03;22.60;;;;;;;8.68;76.29;95345.22;4982895;28;20440;-68
2024/03/01 11:09:14;;;;;;;40.27;21.10;;;;;;;8.74;75.44;95338.84;4984726;28;20920;-70
2024/03/01 11:11:48;;;;;;;37.07;20.93;;;;;;;8.75;75.57;95344.91;4890636;29;20474;-68
2024/03/01 11:14:17;;;;;;;33.87;20.33;;;;;;;8.78;75.36;95344.72;4889984;29;20531;-68
2024/03/01 11:16:47;;;;;;;34.67;21.57;;;;;;;8.86;75.91;95346.03;4899591;29;20447;-69
2024/03/01 11:19:18;;;;;;;30.63;20.20;;;;;;;8.88;75.05;95338.06;4903722;29;20541;-69
2024/03/01 11:21:48;;;;;;;27.47;21.63;;;;;;;8.93;75.71;95336.06;4908606;29;20460;-70
2024/03/01 11:24:22;;;;;;;29.83;21.43;;;;;;;8.94;75.53;95329.06;4900772;29;20526;-71
2024/03/01 11:26:52;;;;;;;30.90;22.73;;;;;;;8.90;75.46;95336.22;4897827;29;20527;-69
2024/03/01 11:29:22;;;;;;;38.60;22.03;;;;;;;8.85;75.64;95326.00;4892869;29;20907;-70
2024/03/01 11:31:54;;;;;;;38.60;21.97;;;;;;;9.01;75.18;95326.00;4890745;29;20464;-70
2024/03/01 11:34:29;;;;;;;31.30;20.27;;;;;;;9.04;75.53;95325.84;4889091;29;20429;-70